KEUG/EUG METAR and TAF weather

Enter ICAO airport designator
Station Type Date Time Source
KEUG METAR 2023/02/05 23:54 UTC NOAA

KEUG 052354Z 22007KT 10SM SCT020 BKN035 OVC045 09/07 A3016 RMK AO2 RAB32E48DZB39E43 SLP215 VCSH P0000 60004 T00890072 10106 20083 53031 $


Station Type Date Time Source
KEUG Decoded METAR 2023/02/05 23:54 UTC NOAA

MAHLON SWEET FIELD, OR, United States (KEUG) 44-08N 123-13W 114M
Feb 05, 2023 - 06:54 PM EST / 2023.02.05 2354 UTC
Wind: from the SW (220 degrees) at 8 MPH (7 KT):0
Visibility: 10 mile(s):0
Sky conditions: overcast
Precipitation last hour: A trace
Temperature: 48.0 F (8.9 C)
Dew Point: 45.0 F (7.2 C)
Relative Humidity: 89%
Pressure (altimeter): 30.16 in. Hg (1021 hPa)
Pressure tendency: 0.09 inches (3.1 hPa) higher than three hours ago
ob: KEUG 052354Z 22007KT 10SM SCT020 BKN035 OVC045 09/07 A3016 RMK AO2 RAB32E48DZB39E43 SLP215 VCSH P0000 60004 T00890072 10106 20083 53031
cycle: 0

Station Type Date Time Source
KEUG TAF 2023/02/05 18:33 UTC NOAA

TAF KEUG 051731Z 0518/0618 21011G22KT P6SM -SHRA SCT020 BKN035 OVC060
FM052100 25012G22KT P6SM -SHRA OVC030
FM060000 26008KT P6SM VCSH OVC025 PROB30 0603/0606 4SM -SHRA BR OVC015
FM060600 24006KT P6SM BKN040

Example: see airport list